Ana Sayfa
METAR-TAF:

METAR-TAF

Havaalanları :

York Airport

York, Pensilvanya, Amerika Birleşik Devletleri

Enlem: 39-55-10N, Boylam: 076-52-37W, yükseklik: 146 m

Güncel hava durumu gözlemi

Rapor saat 17:53 UTC de 1 saat ve 11 dakika önce yapıldı.
Rüzgar kuzeydoğudan 4 kt
Sıcaklık 27°C
Nem 66%
Basınç 1012 hPa
Görüş mesafesi: 16.1 km
3900 ft yükseklikte parçalı çok bulutlu
4700 ft yükseklikte çok bulutlu

METAR: KTHV 051753Z AUTO 04004KT 10SM BKN039 OVC047 27/20 A2989 RMK AO2 LTG DSNT SE SLP119 T02720200 10272 20211 58008

Saat: 15:04 (19:04 UTC)


TAF: eksik

4.000'den fazla havaalanı için hava durumu gözlemleri ve tahminleri (METAR ve TAF raporları).

Kullanılabilir istasyonlar harita üzerinde sarı ve kırmızı noktalarla gösterilir.

İstasyonun adını görmek için fareyi noktanın üzerinde gezdirin.

Sonrasında hava gözlem ve tahminlerini görmek için tıklayın.

Haritayı değiştirmek için: yaklaştırmak için siyah artı işaretli yeşil düğmeye ve uzaklaştırmak için de eksi işaretli düğmeye hızla tıklayın; bitişik haritalar için yeşil okları kullanın.


METAR-TAF: